createdAt,value
2023-04-15T00:02:16.723Z,4.10
2023-04-15T00:04:44.279Z,4.15
2023-04-15T00:07:11.885Z,4.38
2023-04-15T00:09:39.348Z,4.15
2023-04-15T00:12:06.850Z,4.32
2023-04-15T00:14:35.652Z,4.45
2023-04-15T00:17:05.309Z,4.35
2023-04-15T00:19:33.385Z,5.13
2023-04-15T00:22:07.058Z,4.40
2023-04-15T00:24:34.469Z,4.43
2023-04-15T00:27:01.868Z,4.55
2023-04-15T00:29:29.463Z,4.85
2023-04-15T00:31:57.188Z,5.00
2023-04-15T00:34:25.976Z,4.85
2023-04-15T00:36:53.586Z,3.85
2023-04-15T00:39:23.780Z,4.20
2023-04-15T00:41:51.330Z,4.28
2023-04-15T00:44:19.632Z,4.90
2023-04-15T00:46:47.916Z,4.40
2023-04-15T00:49:15.400Z,4.25
2023-04-15T00:51:44.813Z,4.90
2023-04-15T00:54:12.347Z,4.37
2023-04-15T00:56:40.127Z,4.63
2023-04-15T00:59:08.148Z,4.13
2023-04-15T01:01:36.391Z,4.00
2023-04-15T01:04:04.237Z,3.83
2023-04-15T01:06:32.322Z,4.25
2023-04-15T01:09:01.707Z,4.13
2023-04-15T01:11:30.548Z,3.65
2023-04-15T01:14:00.021Z,4.20
2023-04-15T01:16:28.629Z,4.32
2023-04-15T01:19:09.046Z,4.90
2023-04-15T01:21:44.667Z,5.13
2023-04-15T01:24:14.940Z,4.60
2023-04-15T01:26:48.777Z,4.55
2023-04-15T01:29:20.965Z,4.65
2023-04-15T01:31:52.891Z,4.72
2023-04-15T01:34:20.928Z,4.40
2023-04-15T01:36:48.381Z,4.30
2023-04-15T01:39:16.157Z,4.30
2023-04-15T01:41:44.135Z,4.18
2023-04-15T01:44:13.041Z,3.80
2023-04-15T01:46:40.766Z,4.20
2023-04-15T01:49:10.665Z,4.30
2023-04-15T01:51:38.101Z,3.90
2023-04-15T01:54:05.582Z,5.10
2023-04-15T01:56:33.398Z,4.15
2023-04-15T01:59:00.986Z,4.60
2023-04-15T02:01:30.017Z,3.55
2023-04-15T02:03:58.037Z,4.10
2023-04-15T02:06:25.758Z,3.88
2023-04-15T02:08:53.290Z,3.70
2023-04-15T02:11:20.852Z,3.92
2023-04-15T02:13:48.436Z,3.78
2023-04-15T02:16:19.219Z,3.67
2023-04-15T02:18:52.010Z,3.23
2023-04-15T02:21:19.661Z,3.80
2023-04-15T02:23:48.334Z,3.63
2023-04-15T02:26:16.059Z,4.43
2023-04-15T02:28:43.551Z,4.30
2023-04-15T02:31:11.001Z,4.20
2023-04-15T02:33:38.644Z,4.30
2023-04-15T02:36:09.398Z,3.93
2023-04-15T02:38:38.215Z,3.47
2023-04-15T02:41:05.884Z,3.77
2023-04-15T02:43:33.327Z,4.67
2023-04-15T02:46:01.031Z,3.17
2023-04-15T02:48:28.605Z,3.78
2023-04-15T02:51:11.723Z,3.40
2023-04-15T02:53:41.497Z,3.77
2023-04-15T02:56:09.335Z,3.80
2023-04-15T02:58:37.013Z,3.77
2023-04-15T03:01:04.471Z,4.57
2023-04-15T03:03:32.124Z,4.00
2023-04-15T03:05:59.624Z,4.17
2023-04-15T03:08:27.439Z,4.18
2023-04-15T03:10:56.448Z,4.43
2023-04-15T03:13:24.514Z,4.03
2023-04-15T03:15:52.045Z,3.88
2023-04-15T03:18:19.522Z,4.20
2023-04-15T03:20:47.929Z,4.03
2023-04-15T03:23:15.467Z,4.13
2023-04-15T03:25:43.068Z,4.10
2023-04-15T03:28:12.091Z,3.88
2023-04-15T03:30:39.591Z,3.73
2023-04-15T03:33:07.062Z,4.03
2023-04-15T03:35:34.568Z,4.13
2023-04-15T03:38:02.135Z,4.90
2023-04-15T03:40:29.682Z,4.03
2023-04-15T03:42:57.151Z,4.33
2023-04-15T03:45:28.949Z,4.10
2023-04-15T03:48:00.573Z,4.20
2023-04-15T03:50:34.765Z,4.00
2023-04-15T03:53:02.296Z,4.22
2023-04-15T03:55:29.781Z,4.30
2023-04-15T03:57:57.356Z,4.27
2023-04-15T04:00:24.846Z,5.07
2023-04-15T04:02:53.988Z,4.20
2023-04-15T04:05:21.603Z,4.10
2023-04-15T04:07:49.196Z,4.10
2023-04-15T04:10:16.963Z,4.10
2023-04-15T04:12:44.966Z,4.00
2023-04-15T04:15:12.750Z,3.83
2023-04-15T04:17:40.749Z,3.40
2023-04-15T04:20:10.502Z,4.23
2023-04-15T04:22:38.923Z,4.40
2023-04-15T04:25:07.301Z,4.23
2023-04-15T04:27:35.342Z,4.73
2023-04-15T04:30:03.190Z,5.53
2023-04-15T04:32:30.791Z,4.40
2023-04-15T04:34:58.570Z,5.80
2023-04-15T04:37:27.331Z,6.63
2023-04-15T04:39:54.813Z,6.60
2023-04-15T04:42:22.256Z,4.82
2023-04-15T04:44:49.929Z,4.67
2023-04-15T04:47:17.396Z,4.60
2023-04-15T04:49:45.192Z,4.73
2023-04-15T04:52:12.991Z,4.82
2023-04-15T04:54:49.875Z,5.33
2023-04-15T04:57:17.405Z,6.87
2023-04-15T04:59:44.894Z,6.90
2023-04-15T05:02:12.490Z,10.02
2023-04-15T05:04:41.720Z,7.90
2023-04-15T05:07:09.277Z,9.77
2023-04-15T05:09:37.326Z,7.40
2023-04-15T05:12:14.867Z,5.65
2023-04-15T05:14:43.045Z,4.80
2023-04-15T05:17:11.506Z,4.73
2023-04-15T05:19:39.078Z,4.67
2023-04-15T05:22:07.043Z,5.67
2023-04-15T05:24:34.627Z,6.07
2023-04-15T05:27:02.751Z,5.30
2023-04-15T05:29:31.642Z,5.27
2023-04-15T05:31:59.170Z,5.70
2023-04-15T05:34:26.654Z,5.30
2023-04-15T05:36:54.275Z,5.43
2023-04-15T05:39:21.977Z,6.07
2023-04-15T05:41:49.680Z,6.10
2023-04-15T05:44:19.051Z,6.13
2023-04-15T05:46:48.320Z,6.30
2023-04-15T05:49:15.724Z,5.97
2023-04-15T05:51:43.229Z,5.40
2023-04-15T05:54:10.843Z,6.03
2023-04-15T05:56:38.409Z,6.93
2023-04-15T05:59:06.988Z,7.07
2023-04-15T06:01:34.920Z,7.20
2023-04-15T06:04:03.890Z,6.30
2023-04-15T06:06:32.488Z,6.80
2023-04-15T06:09:00.146Z,5.90
2023-04-15T06:11:27.740Z,5.65
2023-04-15T06:13:55.402Z,5.00
2023-04-15T06:16:23.215Z,5.22
2023-04-15T06:18:50.754Z,5.32
2023-04-15T06:21:21.438Z,4.68
2023-04-15T06:23:50.225Z,4.70
2023-04-15T06:26:21.001Z,5.40
2023-04-15T06:28:52.955Z,7.15
2023-04-15T06:31:20.760Z,7.05
2023-04-15T06:33:48.377Z,6.80
2023-04-15T06:36:15.914Z,6.20
2023-04-15T06:38:44.875Z,5.63
2023-04-15T06:41:12.431Z,5.20
2023-04-15T06:43:40.200Z,4.75
2023-04-15T06:46:07.793Z,5.25
2023-04-15T06:48:35.334Z,4.38
2023-04-15T06:51:04.146Z,4.13
2023-04-15T06:53:34.321Z,4.30
2023-04-15T06:56:03.212Z,4.00
2023-04-15T06:58:32.545Z,3.88
2023-04-15T07:01:00.377Z,4.38
2023-04-15T07:03:28.130Z,3.60
2023-04-15T07:05:55.904Z,4.80
2023-04-15T07:08:24.090Z,4.25
2023-04-15T07:10:51.733Z,4.10
2023-04-15T07:13:20.796Z,4.65
2023-04-15T07:15:48.436Z,4.30
2023-04-15T07:18:16.218Z,4.78
2023-04-15T07:20:44.231Z,4.43
2023-04-15T07:23:12.215Z,5.00
2023-04-15T07:25:39.845Z,4.43
2023-04-15T07:28:07.429Z,5.30
2023-04-15T07:30:36.318Z,4.00
2023-04-15T07:33:04.017Z,4.65
2023-04-15T07:35:31.617Z,4.30
2023-04-15T07:37:59.139Z,4.53
2023-04-15T07:40:28.348Z,4.53
2023-04-15T07:42:59.412Z,4.20
2023-04-15T07:45:28.836Z,4.28
2023-04-15T07:47:57.906Z,4.00
2023-04-15T07:50:26.159Z,4.00
2023-04-15T07:52:53.764Z,3.65
2023-04-15T07:55:23.558Z,4.30
2023-04-15T07:57:54.077Z,3.95
2023-04-15T08:00:21.710Z,4.85
2023-04-15T08:02:49.813Z,4.13
2023-04-15T08:05:26.382Z,3.80
2023-04-15T08:07:54.149Z,3.47
2023-04-15T08:10:21.682Z,3.80
2023-04-15T08:12:54.281Z,3.38
2023-04-15T08:15:22.277Z,3.70
2023-04-15T08:17:49.737Z,3.63
2023-04-15T08:20:17.345Z,3.00
2023-04-15T08:22:47.840Z,3.42
2023-04-15T08:25:22.754Z,3.60
2023-04-15T08:27:50.366Z,3.05
2023-04-15T08:30:17.839Z,5.47
2023-04-15T08:32:47.354Z,3.28
2023-04-15T08:35:15.328Z,3.10
2023-04-15T08:37:42.814Z,3.13
2023-04-15T08:40:12.727Z,2.95
2023-04-15T08:42:43.688Z,3.28
2023-04-15T08:45:12.294Z,3.97
2023-04-15T08:47:40.645Z,3.63
2023-04-15T08:50:10.691Z,3.53
2023-04-15T08:52:38.387Z,4.30
2023-04-15T08:55:06.901Z,4.07
2023-04-15T08:57:36.837Z,3.63
2023-04-15T09:00:05.819Z,3.90
2023-04-15T09:02:33.661Z,3.20
2023-04-15T09:05:06.341Z,3.22
2023-04-15T09:07:42.758Z,3.20
2023-04-15T09:10:10.989Z,3.50
2023-04-15T09:12:40.158Z,3.50
2023-04-15T09:15:12.448Z,3.53
2023-04-15T09:17:44.219Z,3.88
2023-04-15T09:20:13.025Z,4.32
2023-04-15T09:22:40.745Z,3.67
2023-04-15T09:25:26.545Z,3.05
2023-04-15T09:27:56.324Z,3.38
2023-04-15T09:30:24.035Z,3.50
2023-04-15T09:32:52.361Z,3.28
2023-04-15T09:35:20.195Z,2.90
2023-04-15T09:37:47.706Z,2.92
2023-04-15T09:40:15.199Z,2.60
2023-04-15T09:42:57.654Z,2.40
2023-04-15T09:45:29.498Z,2.40
2023-04-15T09:48:03.439Z,3.03
2023-04-15T09:50:41.604Z,2.33
2023-04-15T09:53:19.314Z,1.92
2023-04-15T09:58:39.379Z,2.88
2023-04-15T10:01:11.742Z,3.10
2023-04-15T10:03:43.594Z,2.60
2023-04-15T10:06:11.467Z,2.83
2023-04-15T10:08:39.662Z,2.60
2023-04-15T10:11:07.941Z,2.58
2023-04-15T10:13:37.474Z,2.50
2023-04-15T10:16:07.155Z,3.17
2023-04-15T10:18:37.767Z,2.90
2023-04-15T10:21:06.584Z,2.80
2023-04-15T10:23:35.397Z,3.38
2023-04-15T10:26:05.639Z,3.08
2023-04-15T10:28:48.995Z,3.08
2023-04-15T10:31:29.934Z,2.95
2023-04-15T10:34:26.061Z,3.50
2023-04-15T10:37:00.860Z,3.10
2023-04-15T10:39:58.169Z,3.35
2023-04-15T10:42:53.068Z,3.25
2023-04-15T10:45:35.140Z,2.85
2023-04-15T10:48:28.770Z,3.47
2023-04-15T10:51:24.423Z,3.13
2023-04-15T10:53:59.414Z,3.88
2023-04-15T10:56:27.282Z,3.35
2023-04-15T10:59:07.554Z,4.03
2023-04-15T11:01:57.734Z,3.30
2023-04-15T11:04:43.951Z,3.47
2023-04-15T11:07:11.407Z,3.30
2023-04-15T11:09:40.540Z,3.60
2023-04-15T11:12:09.623Z,3.40
2023-04-15T11:14:45.331Z,3.60
2023-04-15T11:17:22.265Z,4.20
2023-04-15T11:19:50.070Z,4.03
2023-04-15T11:22:17.633Z,3.70
2023-04-15T11:24:52.318Z,3.90
2023-04-15T11:27:23.670Z,3.45
2023-04-15T11:29:52.009Z,3.58
2023-04-15T11:32:22.800Z,3.50
2023-04-15T11:34:50.471Z,3.45
2023-04-15T11:37:18.046Z,3.42
2023-04-15T11:39:45.809Z,3.47
2023-04-15T11:42:19.452Z,3.50
2023-04-15T11:44:46.932Z,3.90
2023-04-15T11:47:23.536Z,3.38
2023-04-15T11:49:51.281Z,3.40
2023-04-15T11:52:19.000Z,3.17
2023-04-15T11:54:47.329Z,3.47
2023-04-15T11:57:19.211Z,3.80
2023-04-15T11:59:46.862Z,3.63
2023-04-15T12:02:17.367Z,3.60
2023-04-15T12:04:48.073Z,3.78
2023-04-15T12:07:15.621Z,4.80
2023-04-15T12:09:45.500Z,3.53
2023-04-15T12:12:16.070Z,3.63
2023-04-15T12:14:45.008Z,3.83
2023-04-15T12:17:17.537Z,3.50
2023-04-15T12:19:45.536Z,3.05
2023-04-15T12:22:14.195Z,3.05
2023-04-15T12:24:43.914Z,3.42
2023-04-15T12:27:12.399Z,3.30
2023-04-15T12:29:41.019Z,2.90
2023-04-15T12:32:22.814Z,3.20
2023-04-15T12:34:59.750Z,3.13
2023-04-15T12:37:30.320Z,2.97
2023-04-15T12:40:00.359Z,3.08
2023-04-15T12:42:37.084Z,3.45
2023-04-15T12:45:08.367Z,2.90
2023-04-15T12:47:37.410Z,3.13
2023-04-15T12:50:05.331Z,3.58
2023-04-15T12:52:32.801Z,2.60
2023-04-15T12:55:00.821Z,2.80
2023-04-15T12:57:28.284Z,2.58
2023-04-15T12:59:56.685Z,2.53
2023-04-15T13:02:25.779Z,2.78
2023-04-15T13:04:57.334Z,2.28
2023-04-15T13:07:25.295Z,2.80
2023-04-15T13:09:53.002Z,2.60
2023-04-15T13:12:22.996Z,2.83
2023-04-15T13:14:50.746Z,3.78
2023-04-15T13:17:20.438Z,2.55
2023-04-15T13:19:48.198Z,2.88
2023-04-15T13:22:17.188Z,3.17
2023-04-15T13:24:45.201Z,3.28
2023-04-15T13:27:23.898Z,3.50
2023-04-15T13:29:51.462Z,2.30
2023-04-15T13:32:18.971Z,2.10
2023-04-15T13:34:49.947Z,2.10
2023-04-15T13:37:26.890Z,2.70
2023-04-15T13:39:54.553Z,1.83
2023-04-15T13:42:23.800Z,1.73
2023-04-15T13:44:52.037Z,1.67
2023-04-15T13:47:20.348Z,2.03
2023-04-15T13:49:49.856Z,1.60
2023-04-15T13:52:17.556Z,1.40
2023-04-15T13:54:48.485Z,1.55
2023-04-15T13:57:36.008Z,1.67
2023-04-15T14:00:06.356Z,1.40
2023-04-15T14:02:34.084Z,1.30
2023-04-15T14:05:06.586Z,1.80
2023-04-15T14:07:34.372Z,1.73
2023-04-15T14:10:03.651Z,2.60
2023-04-15T14:12:31.221Z,1.42
2023-04-15T14:14:58.814Z,1.27
2023-04-15T14:17:26.687Z,2.40
2023-04-15T14:19:54.292Z,1.70
2023-04-15T14:22:21.985Z,2.08
2023-04-15T14:24:49.909Z,1.92
2023-04-15T14:27:19.093Z,1.67
2023-04-15T14:29:46.775Z,1.70
2023-04-15T14:32:15.642Z,2.28
2023-04-15T14:34:44.354Z,2.03
2023-04-15T14:37:11.843Z,2.55
2023-04-15T14:39:39.659Z,1.98
2023-04-15T14:42:07.135Z,5.03
2023-04-15T14:44:36.018Z,5.07
2023-04-15T14:47:03.792Z,3.78
2023-04-15T14:49:34.291Z,3.05
2023-04-15T14:52:02.002Z,3.05
2023-04-15T14:54:39.108Z,2.10
2023-04-15T14:57:07.744Z,1.75
2023-04-15T14:59:36.654Z,1.70
2023-04-15T15:02:04.429Z,1.80
2023-04-15T15:04:36.233Z,1.80
2023-04-15T15:07:03.962Z,2.05
2023-04-15T15:09:32.847Z,1.55
2023-04-15T15:12:01.931Z,1.83
2023-04-15T15:14:29.455Z,2.10
2023-04-15T15:16:58.307Z,2.20
2023-04-15T15:19:28.657Z,1.80
2023-04-15T15:21:56.222Z,2.00
2023-04-15T15:24:23.792Z,1.90
2023-04-15T15:26:51.441Z,1.60
2023-04-15T15:29:19.119Z,2.10
2023-04-15T15:31:46.795Z,1.83
2023-04-15T15:34:16.136Z,2.17
2023-04-15T15:36:43.695Z,2.30
2023-04-15T15:39:11.364Z,1.75
2023-04-15T15:41:38.808Z,2.35
2023-04-15T15:44:06.323Z,2.30
2023-04-15T15:46:33.946Z,2.20
2023-04-15T15:49:03.380Z,2.50
2023-04-15T15:51:32.914Z,2.50
2023-04-15T15:54:00.451Z,2.95
2023-04-15T15:56:27.943Z,2.40
2023-04-15T15:58:55.384Z,2.47
2023-04-15T16:01:22.910Z,2.40
2023-04-15T16:03:50.742Z,2.47
2023-04-15T16:06:18.347Z,2.45
2023-04-15T16:08:49.922Z,2.40
2023-04-15T16:11:17.390Z,2.10
2023-04-15T16:13:44.824Z,2.83
2023-04-15T16:16:12.463Z,2.35
2023-04-15T16:18:39.928Z,2.10
2023-04-15T16:21:07.524Z,2.22
2023-04-15T16:23:35.234Z,2.35
2023-04-15T16:26:04.179Z,2.40
2023-04-15T16:28:31.701Z,2.45
2023-04-15T16:30:59.393Z,2.65
2023-04-15T16:33:27.502Z,2.63
2023-04-15T16:35:54.974Z,3.20
2023-04-15T16:38:22.445Z,3.00
2023-04-15T16:40:49.960Z,3.35
2023-04-15T16:43:18.843Z,3.47
2023-04-15T16:45:50.889Z,3.45
2023-04-15T16:48:18.942Z,3.63
2023-04-15T16:50:46.448Z,4.45
2023-04-15T16:53:13.958Z,3.15
2023-04-15T16:55:41.567Z,3.55
2023-04-15T16:58:09.210Z,3.65
2023-04-15T17:00:38.292Z,3.38
2023-04-15T17:03:06.245Z,3.03
2023-04-15T17:05:33.892Z,3.50
2023-04-15T17:08:01.363Z,3.45
2023-04-15T17:10:31.231Z,3.10
2023-04-15T17:13:12.863Z,3.25
2023-04-15T17:15:44.167Z,3.63
2023-04-15T17:18:28.200Z,3.42
2023-04-15T17:21:00.361Z,4.25
2023-04-15T17:23:45.903Z,3.75
2023-04-15T17:26:29.554Z,4.22
2023-04-15T17:28:57.170Z,3.55
2023-04-15T17:31:26.137Z,4.13
2023-04-15T17:34:03.016Z,3.70
2023-04-15T17:36:37.628Z,3.80
2023-04-15T17:39:05.678Z,3.55
2023-04-15T17:41:33.440Z,3.22
2023-04-15T17:44:01.031Z,3.70
2023-04-15T17:46:30.071Z,2.97
2023-04-15T17:48:57.573Z,2.42
2023-04-15T17:51:25.099Z,2.20
2023-04-15T17:53:52.668Z,1.73
2023-04-15T17:56:20.982Z,1.70
2023-04-15T17:58:48.686Z,1.98
2023-04-15T18:01:16.242Z,1.92
2023-04-15T18:03:45.396Z,1.80
2023-04-15T18:06:13.342Z,1.52
2023-04-15T18:08:40.952Z,1.83
2023-04-15T18:11:08.928Z,1.80
2023-04-15T18:13:36.446Z,1.90
2023-04-15T18:16:04.296Z,2.47
2023-04-15T18:18:32.209Z,2.60
2023-04-15T18:21:01.585Z,2.67
2023-04-15T18:23:29.150Z,2.28
2023-04-15T18:25:58.274Z,3.45
2023-04-15T18:28:25.869Z,1.90
2023-04-15T18:30:53.421Z,3.50
2023-04-15T18:33:21.055Z,2.67
2023-04-15T18:35:50.048Z,2.30
2023-04-15T18:38:19.235Z,2.17
2023-04-15T18:40:46.821Z,2.20
2023-04-15T18:43:14.662Z,1.83
2023-04-15T18:45:42.634Z,2.20
2023-04-15T18:48:10.305Z,2.50
2023-04-15T18:50:37.874Z,2.20
2023-04-15T18:53:05.571Z,2.75
2023-04-15T18:55:34.540Z,3.35
2023-04-15T18:58:08.290Z,2.92
2023-04-15T19:00:41.776Z,3.50
2023-04-15T19:03:09.662Z,3.40
2023-04-15T19:05:37.938Z,3.50
2023-04-15T19:08:05.879Z,3.70
2023-04-15T19:10:37.708Z,4.05
2023-04-15T19:13:05.735Z,3.97
2023-04-15T19:15:36.484Z,7.13
2023-04-15T19:18:05.326Z,11.07
2023-04-15T19:20:36.601Z,11.13
2023-04-15T19:23:05.561Z,5.78
2023-04-15T19:25:34.601Z,4.60
2023-04-15T19:28:02.191Z,5.07
2023-04-15T19:30:32.406Z,4.75
2023-04-15T19:33:00.168Z,4.60
2023-04-15T19:35:27.771Z,4.78
2023-04-15T19:37:55.346Z,5.93
2023-04-15T19:40:23.053Z,5.30
2023-04-15T19:42:51.972Z,5.90
2023-04-15T19:45:19.473Z,6.00
2023-04-15T19:47:47.124Z,5.88
2023-04-15T19:50:15.674Z,4.95
2023-04-15T19:52:43.376Z,4.85
2023-04-15T19:55:11.021Z,5.57
2023-04-15T19:57:38.547Z,8.77
2023-04-15T20:00:09.424Z,9.57
2023-04-15T20:02:37.281Z,7.07
2023-04-15T20:05:09.605Z,7.13
2023-04-15T20:07:37.348Z,7.28
2023-04-15T20:10:12.041Z,6.22
2023-04-15T20:12:51.206Z,5.22
2023-04-15T20:15:24.011Z,6.03
2023-04-15T20:17:52.053Z,6.57
2023-04-15T20:20:20.216Z,6.32
2023-04-15T20:22:47.998Z,7.72
2023-04-15T20:25:15.843Z,9.43
2023-04-15T20:27:43.352Z,14.50
2023-04-15T20:30:11.288Z,8.68
2023-04-15T20:32:40.225Z,7.90
2023-04-15T20:35:08.206Z,8.57
2023-04-15T20:37:36.318Z,8.38
2023-04-15T20:40:03.852Z,8.52
2023-04-15T20:42:33.490Z,8.70
2023-04-15T20:45:01.163Z,9.23
2023-04-15T20:47:29.103Z,10.07
2023-04-15T20:49:58.223Z,9.68
2023-04-15T20:52:25.854Z,9.75
2023-04-15T20:54:53.453Z,10.25
2023-04-15T20:57:21.324Z,10.38
2023-04-15T20:59:48.970Z,9.25
2023-04-15T21:02:16.628Z,9.32
2023-04-15T21:04:44.295Z,11.27
2023-04-15T21:07:13.279Z,11.55
2023-04-15T21:09:43.067Z,10.77
2023-04-15T21:12:10.906Z,11.38
2023-04-15T21:14:38.684Z,11.57
2023-04-15T21:17:09.170Z,10.98
2023-04-15T21:19:38.373Z,10.68
2023-04-15T21:22:05.933Z,11.10
2023-04-15T21:24:35.152Z,10.43
2023-04-15T21:27:02.825Z,10.18
2023-04-15T21:29:30.347Z,9.93
2023-04-15T21:31:58.006Z,8.98
2023-04-15T21:34:25.541Z,9.73
2023-04-15T21:36:53.124Z,9.82
2023-04-15T21:39:20.931Z,9.57
2023-04-15T21:41:50.015Z,9.70
2023-04-15T21:44:17.769Z,9.35
2023-04-15T21:46:45.694Z,9.48
2023-04-15T21:49:13.809Z,9.90
2023-04-15T21:51:41.324Z,10.30
2023-04-15T21:54:10.230Z,10.38
2023-04-15T21:56:37.941Z,11.68
2023-04-15T21:59:07.015Z,11.65
2023-04-15T22:01:34.756Z,12.32
2023-04-15T22:04:02.443Z,12.35
2023-04-15T22:06:40.546Z,10.70
2023-04-15T22:09:08.102Z,11.05
2023-04-15T22:11:35.582Z,11.05
2023-04-15T22:14:03.421Z,10.73
2023-04-15T22:16:32.402Z,10.20
2023-04-15T22:18:59.980Z,10.75
2023-04-15T22:21:27.810Z,10.93
2023-04-15T22:24:38.729Z,10.48
2023-04-15T22:26:42.980Z,11.13
2023-04-15T22:29:10.695Z,11.40
2023-04-15T22:31:39.607Z,11.00
2023-04-15T22:34:07.209Z,11.55
2023-04-15T22:36:34.794Z,11.63
2023-04-15T22:39:02.286Z,10.48
2023-04-15T22:41:29.857Z,10.75
2023-04-15T22:43:57.506Z,10.50
2023-04-15T22:46:25.169Z,10.13
2023-04-15T22:48:54.259Z,10.55
2023-04-15T22:51:22.651Z,11.75
2023-04-15T22:53:52.050Z,12.98
2023-04-15T22:56:22.560Z,12.57
2023-04-15T22:58:50.410Z,12.63
2023-04-15T23:01:18.480Z,12.77
2023-04-15T23:03:56.448Z,11.45
2023-04-15T23:06:34.921Z,12.32
2023-04-15T23:09:02.516Z,11.82
2023-04-15T23:11:30.160Z,12.02
2023-04-15T23:13:57.663Z,12.13
2023-04-15T23:16:25.252Z,13.02
2023-04-15T23:18:52.908Z,13.15
2023-04-15T23:21:20.966Z,14.00
2023-04-15T23:23:49.985Z,14.77
2023-04-15T23:26:17.528Z,14.40
2023-04-15T23:28:45.038Z,13.75
2023-04-15T23:31:12.667Z,13.68
2023-04-15T23:33:40.481Z,12.68
2023-04-15T23:36:08.117Z,13.52
2023-04-15T23:38:39.673Z,13.88
2023-04-15T23:41:09.142Z,13.50
2023-04-15T23:43:36.667Z,14.25
2023-04-15T23:46:04.298Z,13.65
2023-04-15T23:48:32.308Z,13.32
2023-04-15T23:51:00.528Z,12.65
2023-04-15T23:53:29.667Z,12.13
2023-04-15T23:55:57.324Z,11.65
2023-04-15T23:58:26.272Z,11.10
